Details From KSFO - San Francisco Intl
To KMMH - Mammoth Yosemite
Flight Number -
Tags Generated
Created
Modified
Stats Distance 168 nm / 311 km
Max Altitude 0 ft / 0 m
Waypoints 2
Social Downloads 1
Likes 0
Share VATSIM

Download

Looking for another format? Having issues loading an existing format? Contact us
Advertisement - Login to hide

Notes

Generated

Route

KSFO KMMH

ID Type Via Altitude Latitude Longitude Leg Dist Tot Dist Heading (true) Name
O KSFO APT - 0 ft / 0 m 37.60898˚ -122.38220˚ - 0 nm - -
O KMMH APT - 0 ft / 0 m 37.62717˚ -118.85016˚ 168 nm 168 nm 89° / 91° -

Altitude Profile

Advertisement - Login to hide

Weather


0- 5 10 15 20 25 30 35+ Temperature / ° C

Clouds and Precipitation
Forecast for 2017-12-11 12:00 UTC. Updated 32 minutes ago

Ground ~20,000 ft ~40,000 ft Winds

KSFO

Details ICAO KSFO (SFO)
Name San Francisco Intl
Region United States
Timezone America/Los_Angeles (UTC-8.0)
Stats Elevation 13 ft / 4 m (AMSL)
Location 37.618674° -122.375008°
Runways 4
Magnetic Variation 13.465° E

METAR

KSFO 110856Z 17003KT 10SM FEW200 09/02 A3024 RMK AO2 SLP241 T00890022 51006

Decode

TAF

KSFO 110900Z 1109/1212 17004KT P6SM FEW200 FM112000 05003KT P6SM FEW200 FM120100 34006KT P6SM SCT200 FM120500 VRB03KT P6SM FEW200

Decode

Departure Runways

ID Width Length Bearing (true) Bearing (mag) Surface Threshold Offset Overrun Length
01L 200 ft / 61 m 7,509 ft / 2,289 m 27.70° 14.24° Asphalt 492 ft / 150 m 0 ft / 0 m
01R 200 ft / 61 m 8,907 ft / 2,715 m 27.71° 14.25° Asphalt 492 ft / 150 m 0 ft / 0 m
10L 200 ft / 61 m 11,856 ft / 3,614 m 117.89° 104.43° Asphalt 0 ft / 0 m 860 ft / 262 m
10R 200 ft / 61 m 10,589 ft / 3,228 m 117.90° 104.44° Asphalt 0 ft / 0 m 0 ft / 0 m
19L 200 ft / 61 m 8,907 ft / 2,715 m 207.72° 194.26° Asphalt 0 ft / 0 m 0 ft / 0 m
19R 200 ft / 61 m 7,509 ft / 2,289 m 207.70° 194.24° Asphalt 0 ft / 0 m 0 ft / 0 m
28L 200 ft / 61 m 10,589 ft / 3,228 m 297.92° 284.46° Asphalt 0 ft / 0 m 341 ft / 104 m
28R 200 ft / 61 m 11,856 ft / 3,614 m 297.91° 284.45° Asphalt 0 ft / 0 m 341 ft / 104 m

KMMH

Details ICAO KMMH (MMH)
Name Mammoth Yosemite
Region United States
Timezone America/Los_Angeles (UTC-8.0)
Stats Elevation 7,128 ft / 2,173 m (AMSL)
Location 37.624049° -118.838737°
Runways 1
Magnetic Variation 12.824° E

METAR

KMMH 110935Z AUTO 34004KT 10SM CLR M10/M17 A3051 RMK AO2 T11031169

Decode

TAF

TAF KMMH 110521Z 1106/1206 VRB03KT P6SM FEW250

Decode

Destination Runways

ID Width Length Bearing (true) Bearing (mag) Surface Threshold Offset Overrun Length
09 98 ft / 30 m 6,987 ft / 2,130 m 109.02° 96.20° Asphalt 0 ft / 0 m 2,999 ft / 914 m
27 98 ft / 30 m 6,987 ft / 2,130 m 289.03° 276.21° Asphalt 0 ft / 0 m 0 ft / 0 m

Popular Alternatives